Time;durP1;ratioP1;P1;durP2;ratioP2;P2;SDS_P1;SDS_P2;PMS_P1;PMS_P2;Temp;Humidity;BMP_temperature;BMP_pressure;BME280_temperature;BME280_humidity;BME280_pressure;Samples;Min_cycle;Max_cycle;Signal;HPM_P1;HPM_P2
2022/07/05 00:00:34;;;;;;;2.30;1.30;;;;;;;16.12;78.48;101325.75;4990558;28;20125;-90
2022/07/05 00:03:01;;;;;;;7.03;1.40;;;;;;;16.09;78.66;101331.06;4992166;28;20049;-85
2022/07/05 00:05:28;;;;;;;3.60;1.88;;;;;;;16.08;78.80;101335.50;4988757;28;20104;-87
2022/07/05 00:07:57;;;;;;;7.20;1.88;;;;;;;16.09;79.30;101325.78;4970133;28;20042;-86
2022/07/05 00:10:24;;;;;;;2.92;1.33;;;;;;;16.11;78.75;101337.19;4971406;28;20046;-87
2022/07/05 00:12:51;;;;;;;2.85;1.38;;;;;;;16.09;78.73;101331.97;4987943;28;20042;-84
2022/07/05 00:15:18;;;;;;;4.30;1.50;;;;;;;16.06;79.17;101331.16;4978011;28;20136;-84
2022/07/05 00:17:47;;;;;;;1.38;1.27;;;;;;;16.03;79.19;101332.97;4986891;28;20073;-85
2022/07/05 00:20:20;;;;;;;2.03;1.23;;;;;;;16.00;79.55;101330.38;4971984;28;20069;-86
2022/07/05 00:22:47;;;;;;;3.25;1.38;;;;;;;15.99;79.23;101328.63;4970472;28;20665;-86
2022/07/05 00:25:17;;;;;;;6.68;1.80;;;;;;;15.93;79.77;101325.25;4971860;28;20042;-85
2022/07/05 00:27:54;;;;;;;1.70;1.55;;;;;;;15.88;79.94;101326.22;4967131;28;20153;-84
2022/07/05 00:30:21;;;;;;;7.18;1.27;;;;;;;15.83;80.16;101324.56;4974547;28;20050;-84
2022/07/05 00:32:49;;;;;;;3.50;1.73;;;;;;;15.81;80.55;101336.94;4972996;28;20046;-86
2022/07/05 00:35:16;;;;;;;4.22;1.95;;;;;;;15.82;81.42;101325.47;4975716;28;20038;-85
2022/07/05 00:37:46;;;;;;;4.72;1.52;;;;;;;15.82;80.65;101331.59;4984011;28;20085;-86
2022/07/05 00:40:22;;;;;;;2.50;1.45;;;;;;;15.76;80.70;101329.09;4974968;28;20137;-87
2022/07/05 00:42:51;;;;;;;3.05;1.33;;;;;;;15.72;80.67;101332.66;4986574;28;20251;-85
2022/07/05 00:45:18;;;;;;;2.80;1.33;;;;;;;15.67;80.93;101331.88;4976974;28;20149;-86
2022/07/05 00:47:52;;;;;;;5.80;1.85;;;;;;;15.66;81.00;101330.16;4976977;28;20520;-85
2022/07/05 00:50:24;;;;;;;;;;;;;;;15.62;82.40;101334.63;4989639;28;20757;-86
2022/07/05 00:52:57;;;;;;;6.57;1.67;;;;;;;15.61;82.18;101332.00;4974368;28;19926;-86
2022/07/05 00:55:24;;;;;;;4.38;1.77;;;;;;;15.59;81.94;101329.41;4975725;28;20489;-87
2022/07/05 00:57:58;;;;;;;1.58;1.38;;;;;;;15.57;82.07;101335.63;4964359;28;20165;-87
2022/07/05 01:00:34;;;;;;;6.30;1.50;;;;;;;15.57;82.28;101339.09;4998855;28;20035;-87
2022/07/05 01:03:00;;;;;;;3.00;1.55;;;;;;;15.57;82.02;101338.25;4992067;28;20510;-86
2022/07/05 01:05:29;;;;;;;3.63;1.33;;;;;;;15.50;82.55;101335.72;4972520;28;20954;-86
2022/07/05 01:07:57;;;;;;;4.20;2.20;;;;;;;15.51;83.27;101333.94;4982222;28;20336;-85
2022/07/05 01:10:24;;;;;;;6.25;1.40;;;;;;;15.50;83.18;101325.16;4967779;28;20093;-84
2022/07/05 01:12:51;;;;;;;5.43;1.60;;;;;;;15.49;82.92;101328.69;4969019;28;20050;-86
2022/07/05 01:15:22;;;;;;;2.75;1.33;;;;;;;15.47;83.24;101330.47;4973307;28;20054;-85
2022/07/05 01:17:49;;;;;;;2.95;1.30;;;;;;;15.43;83.22;101327.94;4966226;28;20050;-83
2022/07/05 01:20:15;;;;;;;3.47;1.63;;;;;;;15.41;83.11;101333.25;4989011;28;20104;-85
2022/07/05 01:22:59;;;;;;;4.18;1.40;;;;;;;15.38;84.00;101334.19;4970790;28;20056;-86
2022/07/05 01:25:28;;;;;;;3.42;1.65;;;;;;;15.34;83.88;101324.59;4970279;28;20478;-85
2022/07/05 01:27:56;;;;;;;8.32;1.95;;;;;;;15.32;83.97;101334.28;4966587;28;20393;-87
2022/07/05 01:30:23;;;;;;;2.55;1.33;;;;;;;15.30;84.19;101335.22;4978615;28;20046;-86
2022/07/05 01:32:53;;;;;;;2.97;2.33;;;;;;;15.28;84.08;101334.34;4976518;28;20043;-85
2022/07/05 01:35:21;;;;;;;4.78;1.75;;;;;;;15.25;84.34;101337.06;4974543;28;20074;-85
2022/07/05 01:37:52;;;;;;;4.25;2.13;;;;;;;15.20;84.72;101339.75;4969985;28;20057;-86
2022/07/05 01:40:21;;;;;;;4.82;1.88;;;;;;;15.18;84.96;101339.78;4987097;28;20153;-87
2022/07/05 01:42:48;;;;;;;3.25;2.22;;;;;;;15.15;85.39;101329.31;4973086;28;20061;-87
2022/07/05 01:45:38;;;;;;;1.73;1.58;;;;;;;15.11;85.11;101338.16;4979955;28;20042;-84
2022/07/05 01:48:10;;;;;;;6.13;1.65;;;;;;;15.06;85.76;101337.38;4978994;28;20510;-86
2022/07/05 01:50:43;;;;;;;5.50;1.80;;;;;;;15.01;85.99;101333.94;4990718;28;20046;-86
2022/07/05 01:55:59;;;;;;;5.32;1.95;;;;;;;14.86;86.38;101327.13;4968418;28;20792;-85
2022/07/05 01:58:27;;;;;;;2.30;1.73;;;;;;;14.80;86.84;101333.38;4972562;28;20497;-85
2022/07/05 02:00:57;;;;;;;2.10;1.90;;;;;;;14.76;86.93;101333.44;4977019;28;20069;-88
2022/07/05 02:03:24;;;;;;;2.70;2.45;;;;;;;14.70;87.50;101337.91;4976087;28;20078;-85
2022/07/05 02:05:52;;;;;;;6.82;2.15;;;;;;;14.71;87.61;101349.34;4971166;28;20050;-87
2022/07/05 02:08:22;;;;;;;3.47;1.98;;;;;;;14.68;87.57;101338.88;4956924;28;20057;-85
2022/07/05 02:10:51;;;;;;;5.43;2.50;;;;;;;14.67;87.88;101339.75;4982718;28;20046;-85
2022/07/05 02:13:20;;;;;;;4.68;3.13;;;;;;;14.63;88.18;101346.78;4959496;28;20054;-84
2022/07/05 02:15:48;;;;;;;4.97;2.47;;;;;;;14.63;88.48;101340.66;4984459;28;20042;-85
2022/07/05 02:18:15;;;;;;;2.50;2.28;;;;;;;14.59;88.67;101331.03;4991797;28;20050;-86
2022/07/05 02:20:45;;;;;;;2.42;1.85;;;;;;;14.54;88.72;101337.25;4991010;28;20065;-86
2022/07/05 02:23:19;;;;;;;7.60;3.58;;;;;;;14.50;89.09;101332.06;4967488;28;20046;-85
2022/07/05 02:25:58;;;;;;;4.25;2.35;;;;;;;14.48;89.10;101339.97;4980073;28;20093;-86
2022/07/05 02:28:31;;;;;;;5.47;2.10;;;;;;;14.47;89.39;101338.25;4960830;28;20122;-88
2022/07/05 02:30:58;;;;;;;3.28;2.40;;;;;;;14.48;89.78;101345.22;4976438;28;20076;-87
2022/07/05 02:33:25;;;;;;;5.70;2.88;;;;;;;14.46;89.70;101344.41;4973898;28;20473;-86
2022/07/05 02:35:51;;;;;;;4.00;2.80;;;;;;;14.47;90.52;101351.41;4970352;28;20944;-86
2022/07/05 02:38:18;;;;;;;4.25;2.60;;;;;;;14.48;90.34;101347.88;4972114;28;20061;-86
2022/07/05 02:40:54;;;;;;;4.43;2.15;;;;;;;14.48;90.28;101342.59;4956377;28;20052;-86
2022/07/05 02:43:20;;;;;;;8.55;2.72;;;;;;;14.43;90.46;101351.47;4987930;28;20072;-87
2022/07/05 02:45:47;;;;;;;2.35;1.88;;;;;;;14.35;90.90;101348.94;4976270;28;20050;-85
2022/07/05 02:48:14;;;;;;;6.50;2.63;;;;;;;14.31;91.19;101353.38;4971717;28;20077;-85
2022/07/05 02:50:45;;;;;;;2.40;2.20;;;;;;;14.29;91.70;101352.53;4970398;28;20113;-85
2022/07/05 02:53:15;;;;;;;2.47;1.98;;;;;;;14.29;91.51;101352.53;4979345;28;20057;-86
2022/07/05 02:55:44;;;;;;;2.88;2.13;;;;;;;14.22;91.36;101353.47;4968083;28;20050;-87
2022/07/05 02:58:11;;;;;;;4.95;2.67;;;;;;;14.20;91.73;101363.19;4984505;28;20077;-88
2022/07/05 03:00:38;;;;;;;2.67;2.17;;;;;;;14.17;92.25;101355.31;4975990;28;20477;-86
2022/07/05 03:03:06;;;;;;;4.07;2.60;;;;;;;14.13;92.48;101358.88;4989492;28;20129;-87
2022/07/05 03:05:34;;;;;;;3.67;2.33;;;;;;;14.12;93.08;101365.03;4985853;28;20501;-87
2022/07/05 03:08:00;;;;;;;2.85;2.53;;;;;;;14.09;93.62;101371.19;4967835;28;20129;-86
2022/07/05 03:10:27;;;;;;;6.50;3.00;;;;;;;14.07;93.70;101368.59;4970974;28;20049;-87
2022/07/05 03:12:59;;;;;;;2.58;2.17;;;;;;;14.09;93.68;101370.34;4983429;28;20520;-85
2022/07/05 03:15:26;;;;;;;2.30;2.10;;;;;;;14.11;94.02;101360.66;4973456;28;20041;-88
2022/07/05 03:17:53;;;;;;;3.22;2.28;;;;;;;14.12;93.68;101365.03;4968093;28;20737;-86
2022/07/05 03:20:24;;;;;;;2.20;2.10;;;;;;;14.08;93.79;101372.09;4968185;28;20050;-86
2022/07/05 03:22:50;;;;;;;3.65;2.63;;;;;;;14.04;93.95;101373.91;4969127;28;20596;-86
2022/07/05 03:25:17;;;;;;;6.18;2.78;;;;;;;14.03;94.42;101369.53;4972095;28;20223;-85
2022/07/05 03:27:52;;;;;;;2.65;2.45;;;;;;;14.03;94.45;101376.56;4984127;28;20747;-86
2022/07/05 03:30:22;;;;;;;3.80;3.17;;;;;;;14.08;95.45;101377.38;4991988;28;20095;-87
2022/07/05 03:32:49;;;;;;;3.67;2.50;;;;;;;14.19;94.56;101371.97;4975642;28;20046;-85
2022/07/05 03:35:16;;;;;;;4.28;2.80;;;;;;;14.32;93.81;101373.53;4966056;28;20050;-85
2022/07/05 03:37:46;;;;;;;5.32;2.45;;;;;;;14.40;93.17;101376.09;4963346;28;20511;-85
2022/07/05 03:40:13;;;;;;;6.20;2.55;;;;;;;14.45;92.91;101376.03;4982898;28;20438;-86
2022/07/05 03:42:40;;;;;;;4.65;2.80;;;;;;;14.45;92.41;101376.03;4970237;28;20515;-87
2022/07/05 03:45:10;;;;;;;2.88;2.67;;;;;;;14.44;92.14;101374.28;4970823;28;20053;-84
2022/07/05 03:47:37;;;;;;;3.50;2.70;;;;;;;14.48;92.41;101379.47;4964723;28;20038;-85
2022/07/05 03:50:05;;;;;;;4.43;3.20;;;;;;;14.53;92.11;101375.00;4984772;28;20700;-85
2022/07/05 03:52:32;;;;;;;3.53;2.97;;;;;;;14.61;91.98;101385.44;4983874;28;20799;-86
2022/07/05 03:54:59;;;;;;;1.90;1.80;;;;;;;14.71;91.15;101375.69;4970574;28;20070;-87
2022/07/05 03:57:26;;;;;;;4.32;2.75;;;;;;;14.81;90.57;101381.69;4980232;28;20474;-86
2022/07/05 03:59:54;;;;;;;2.47;2.28;;;;;;;14.92;89.82;101386.81;4970794;28;20042;-85
2022/07/05 04:02:24;;;;;;;3.78;2.65;;;;;;;15.00;89.17;101385.78;4974327;28;20042;-87
2022/07/05 04:04:53;;;;;;;3.75;2.20;;;;;;;15.08;88.67;101384.81;4971103;28;20062;-86
2022/07/05 04:07:21;;;;;;;6.45;2.30;;;;;;;15.13;88.06;101382.97;4983442;28;20050;-86
2022/07/05 04:09:50;;;;;;;5.70;2.58;;;;;;;15.15;87.50;101381.19;4972793;28;20049;-86
2022/07/05 04:12:23;;;;;;;4.93;2.92;;;;;;;15.18;87.22;101386.41;4968587;28;20054;-86
2022/07/05 04:14:49;;;;;;;8.10;2.75;;;;;;;15.17;86.89;101382.88;4973691;28;20038;-85
2022/07/05 04:17:19;;;;;;;7.05;2.30;;;;;;;15.21;86.87;101387.22;4967359;28;20038;-85
2022/07/05 04:19:46;;;;;;;4.72;4.00;;;;;;;15.25;86.33;101382.75;4967711;28;20048;-83
2022/07/05 04:22:16;;;;;;;5.60;2.45;;;;;;;15.26;86.16;101378.38;4976260;28;20156;-84
2022/07/05 04:27:29;;;;;;;7.88;2.80;;;;;;;15.26;85.90;101389.78;4976622;28;20098;-84
2022/07/05 04:29:58;;;;;;;5.15;2.40;;;;;;;15.26;85.45;101381.84;4991753;28;20104;-84
2022/07/05 04:32:40;;;;;;;;;;;;;;;;;;;;;
2022/07/05 04:35:08;;;;;;;9.93;3.28;;;;;;;15.42;84.84;101400.06;4981087;28;20155;-84
2022/07/05 04:37:35;;;;;;;6.65;3.60;;;;;;;15.50;83.72;101395.53;4962121;28;20064;-86
2022/07/05 04:40:13;;;;;;;11.65;3.00;;;;;;;15.52;83.28;101391.09;4972579;28;20073;-86
2022/07/05 04:42:41;;;;;;;10.65;2.80;;;;;;;15.51;83.01;101399.91;4968282;28;20511;-85
2022/07/05 04:45:09;;;;;;;8.10;2.40;;;;;;;15.53;82.46;101404.25;4971878;28;20046;-86
2022/07/05 04:47:41;;;;;;;5.35;2.72;;;;;;;15.54;82.52;101400.72;4971009;28;20045;-85
2022/07/05 04:50:09;;;;;;;4.28;2.00;;;;;;;15.61;82.06;101395.34;4969858;28;20056;-86
2022/07/05 04:55:17;;;;;;;4.70;2.45;;;;;;;15.71;80.77;101397.78;4982249;28;20137;-86
2022/07/05 04:57:46;;;;;;;5.75;3.63;;;;;;;15.77;80.37;101410.00;4983579;28;20050;-84
2022/07/05 05:00:15;;;;;;;10.60;3.88;;;;;;;15.81;79.81;101413.47;4991835;28;20050;-86
2022/07/05 05:02:42;;;;;;;7.63;2.88;;;;;;;15.83;79.61;101409.91;4977847;28;20047;-86
2022/07/05 05:05:13;;;;;;;4.88;2.30;;;;;;;15.81;79.46;101410.84;4973671;28;20058;-86
2022/07/05 05:07:48;;;;;;;5.95;2.75;;;;;;;15.75;79.68;101405.63;4973211;28;20050;-86
2022/07/05 05:10:14;;;;;;;3.92;2.97;;;;;;;15.68;80.15;101405.78;4989475;28;20038;-85
2022/07/05 05:12:47;;;;;;;12.52;2.33;;;;;;;15.70;80.10;101414.50;4974001;28;20131;-86
2022/07/05 05:15:16;;;;;;;8.07;2.58;;;;;;;15.73;80.21;101412.72;4984142;28;20050;-85
2022/07/05 05:17:45;;;;;;;7.00;2.60;;;;;;;15.78;79.86;101418.81;4977210;28;20058;-86
2022/07/05 05:20:19;;;;;;;4.85;2.58;;;;;;;15.89;79.54;101414.19;4973395;28;20046;-86
2022/07/05 05:22:50;;;;;;;2.88;2.53;;;;;;;16.06;78.83;101427.09;4984242;28;20133;-86
2022/07/05 05:25:17;;;;;;;5.00;2.20;;;;;;;16.32;78.07;101420.41;4951694;28;20054;-86
2022/07/05 05:27:51;;;;;;;4.78;1.77;;;;;;;16.57;76.67;101425.19;4972510;28;20046;-86
2022/07/05 05:30:22;;;;;;;4.15;2.13;;;;;;;16.70;76.25;101418.75;4940646;28;20046;-85
2022/07/05 05:32:59;;;;;;;;;;;;;;;;;;;;;
2022/07/05 05:35:34;;;;;;;2.92;1.77;;;;;;;16.70;76.19;101421.38;4964264;28;20129;-86
2022/07/05 05:40:56;;;;;;;6.72;2.00;;;;;;;16.51;78.01;101427.03;4975994;28;20800;-85
2022/07/05 05:43:25;;;;;;;5.25;2.10;;;;;;;16.51;78.51;101429.69;4979969;28;20050;-85
2022/07/05 05:45:53;;;;;;;5.63;1.90;;;;;;;16.53;78.60;101429.66;4978549;28;20732;-87
2022/07/05 05:48:23;;;;;;;4.25;2.40;;;;;;;16.62;78.29;101432.13;4977014;28;20048;-91
2022/07/05 05:50:52;;;;;;;6.53;3.03;;;;;;;16.73;77.82;101434.53;4959001;28;20794;-84
2022/07/05 05:53:21;;;;;;;7.03;2.72;;;;;;;16.79;77.35;101441.44;4952381;28;20062;-86
2022/07/05 05:56:00;;;;;;;3.67;2.83;;;;;;;16.80;76.99;101446.69;4972734;28;20038;-86
2022/07/05 05:58:27;;;;;;;4.85;2.40;;;;;;;16.69;77.50;101440.78;4990712;28;20045;-84
2022/07/05 06:00:56;;;;;;;6.65;2.78;;;;;;;16.63;77.78;101448.84;4985601;28;20139;-85
2022/07/05 06:03:35;;;;;;;4.57;2.40;;;;;;;16.64;77.95;101454.09;4983825;28;20046;-85
2022/07/05 06:06:08;;;;;;;3.33;2.17;;;;;;;16.68;77.56;101452.25;4952757;28;20576;-85
2022/07/05 06:08:43;;;;;;;2.40;1.95;;;;;;;16.74;77.33;101453.88;4981424;28;20041;-86
2022/07/05 06:11:10;;;;;;;3.35;1.77;;;;;;;16.83;76.70;101449.28;4978393;28;21009;-86
2022/07/05 06:13:42;;;;;;;3.78;1.60;;;;;;;16.93;75.78;101451.75;4979970;28;20051;-86
2022/07/05 06:16:12;;;;;;;4.28;2.03;;;;;;;16.99;74.68;101452.47;4980954;28;20050;-86
2022/07/05 06:18:39;;;;;;;7.80;1.80;;;;;;;17.02;73.79;101459.47;4981387;28;20037;-86
2022/07/05 06:21:10;;;;;;;3.05;1.63;;;;;;;17.01;73.20;101463.00;4993425;28;20157;-85
2022/07/05 06:23:45;;;;;;;5.13;2.13;;;;;;;17.00;71.51;101464.81;4974131;28;20117;-86
2022/07/05 06:26:12;;;;;;;7.15;2.90;;;;;;;17.02;71.70;101470.03;4992068;28;20049;-84
2022/07/05 06:28:38;;;;;;;3.78;1.23;;;;;;;17.07;71.53;101473.47;4981174;28;20046;-84
2022/07/05 06:31:06;;;;;;;1.77;1.33;;;;;;;17.16;71.10;101472.38;4980023;28;20195;-86
2022/07/05 06:33:33;;;;;;;2.53;1.65;;;;;;;17.23;70.37;101475.75;4978732;28;20046;-87
2022/07/05 06:36:00;;;;;;;5.07;2.00;;;;;;;17.31;70.33;101477.31;4977002;28;20690;-86
2022/07/05 06:38:32;;;;;;;8.73;1.50;;;;;;;17.40;69.76;101470.06;4993953;28;20043;-84
2022/07/05 06:40:59;;;;;;;1.90;1.15;;;;;;;17.40;69.11;101470.91;4993777;28;20106;-85
2022/07/05 06:43:31;;;;;;;2.95;1.48;;;;;;;17.36;68.92;101469.25;4979369;28;20093;-84
2022/07/05 06:45:59;;;;;;;2.72;1.27;;;;;;;17.35;68.35;101472.78;4965693;28;20069;-85
2022/07/05 06:48:25;;;;;;;2.25;1.88;;;;;;;17.37;67.16;101481.59;4980948;28;20069;-85
2022/07/05 06:50:52;;;;;;;3.13;0.95;;;;;;;17.43;66.68;101478.78;4975249;28;20057;-85
2022/07/05 06:53:20;;;;;;;5.35;1.33;;;;;;;17.44;66.28;101477.00;4992229;28;20062;-86
2022/07/05 06:55:47;;;;;;;1.50;1.17;;;;;;;17.48;66.14;101476.91;4992854;28;20051;-85
2022/07/05 06:58:21;;;;;;;3.20;1.08;;;;;;;17.60;65.43;101477.50;4992187;28;20046;-85
2022/07/05 07:00:48;;;;;;;4.28;0.98;;;;;;;17.71;63.99;101480.75;4979781;28;20061;-85
2022/07/05 07:06:03;;;;;;;0.80;0.80;;;;;;;17.91;61.44;101480.22;4976908;28;20090;-86
2022/07/05 07:11:15;;;;;;;4.63;0.90;;;;;;;18.09;59.02;101476.25;4958787;28;20030;-84
2022/07/05 07:13:42;;;;;;;0.63;0.47;;;;;;;18.05;59.25;101479.88;4977794;28;20070;-83
2022/07/05 07:16:08;;;;;;;2.63;1.08;;;;;;;18.04;58.11;101482.59;4976168;28;20046;-83
2022/07/05 07:18:37;;;;;;;4.55;1.33;;;;;;;18.01;58.49;101480.88;4973994;28;20080;-85
2022/07/05 07:21:05;;;;;;;2.28;0.50;;;;;;;18.06;58.32;101480.78;4992786;28;20092;-86
2022/07/05 07:23:32;;;;;;;1.92;0.45;;;;;;;18.15;57.77;101478.72;4981790;28;20052;-85
2022/07/05 07:26:00;;;;;;;2.22;1.02;;;;;;;18.33;57.40;101477.34;4979129;28;20030;-85
2022/07/05 07:28:28;;;;;;;1.80;0.80;;;;;;;18.61;56.22;101483.63;4993292;28;20108;-86
2022/07/05 07:30:57;;;;;;;1.50;0.80;;;;;;;19.03;55.19;101482.41;4976365;28;20047;-86
2022/07/05 07:33:23;;;;;;;2.58;0.82;;;;;;;19.65;52.84;101476.84;4967955;28;20613;-84
2022/07/05 07:35:55;;;;;;;1.00;0.65;;;;;;;20.32;51.36;101474.56;4995896;28;20042;-86
2022/07/05 07:38:22;;;;;;;3.70;0.90;;;;;;;20.93;48.45;101473.19;5000495;28;20057;-88
2022/07/05 07:40:52;;;;;;;0.90;0.90;;;;;;;21.33;47.45;101482.25;4999119;28;20062;-87
2022/07/05 07:43:19;;;;;;;1.55;1.05;;;;;;;21.63;46.78;101488.09;5006468;28;20106;-86
2022/07/05 07:45:50;;;;;;;1.38;1.13;;;;;;;21.75;46.24;101486.72;5009778;28;20537;-88
2022/07/05 07:48:18;;;;;;;2.08;0.75;;;;;;;22.09;44.56;101489.72;4990806;28;20061;-86
2022/07/05 07:50:46;;;;;;;8.15;1.52;;;;;;;22.02;44.55;101483.81;5001831;28;20049;-86
2022/07/05 07:53:23;;;;;;;2.25;0.93;;;;;;;21.93;44.38;101477.06;4997763;28;20185;-85
2022/07/05 07:55:50;;;;;;;4.85;0.50;;;;;;;21.93;44.66;101487.72;4992025;28;20050;-86
2022/07/05 07:58:18;;;;;;;1.98;0.47;;;;;;;22.17;43.89;101484.06;4996246;28;20057;-86
2022/07/05 08:00:45;;;;;;;1.67;0.50;;;;;;;22.09;42.75;101485.25;4980983;28;20042;-85
2022/07/05 08:03:11;;;;;;;3.00;0.80;;;;;;;21.83;43.29;101488.22;4994151;28;20073;-85
2022/07/05 08:05:43;;;;;;;2.08;0.55;;;;;;;21.63;42.71;101488.09;4992074;28;20496;-87
2022/07/05 08:08:13;;;;;;;1.77;0.40;;;;;;;21.68;42.66;101492.38;4987981;28;20108;-85
2022/07/05 08:10:40;;;;;;;2.28;0.40;;;;;;;22.11;41.57;101494.06;4989073;28;20117;-87
2022/07/05 08:13:07;;;;;;;2.15;0.60;;;;;;;22.27;41.63;101486.25;4974833;28;20038;-85
2022/07/05 08:15:33;;;;;;;2.25;0.65;;;;;;;21.99;41.85;101483.91;4978329;28;20050;-86
2022/07/05 08:23:28;;;;;;;2.83;0.40;;;;;;;23.76;38.60;101471.19;4977994;28;20057;-86
2022/07/05 08:25:55;;;;;;;0.93;0.50;;;;;;;24.65;36.31;101473.66;4972226;28;20038;-85
2022/07/05 08:28:22;;;;;;;1.00;0.45;;;;;;;25.47;33.48;101468.19;4974927;28;20030;-85
2022/07/05 08:30:50;;;;;;;3.58;0.38;;;;;;;25.55;33.60;101471.25;4964204;28;20053;-88
2022/07/05 08:33:18;;;;;;;1.02;0.38;;;;;;;25.63;32.25;101477.06;4972030;28;20062;-87
2022/07/05 08:35:45;;;;;;;0.70;0.38;;;;;;;25.23;32.63;101474.00;4988291;28;20053;-86
2022/07/05 08:38:13;;;;;;;1.67;0.60;;;;;;;25.47;32.83;101470.88;4985070;28;20054;-87
2022/07/05 08:40:49;;;;;;;1.13;0.50;;;;;;;26.03;32.57;101469.25;4982718;28;20121;-86
2022/07/05 08:43:20;;;;;;;1.70;0.60;;;;;;;26.64;31.51;101462.88;4989387;28;20057;-83
2022/07/05 08:45:48;;;;;;;4.72;0.45;;;;;;;26.95;30.99;101455.50;4976591;28;20053;-87
2022/07/05 08:48:18;;;;;;;2.05;0.88;;;;;;;27.13;30.64;101464.19;4987716;28;20053;-86
2022/07/05 08:53:11;;;;;;;0.95;0.40;;;;;;;27.24;30.76;101458.97;5047334;23;20057;-84
2022/07/05 08:55:38;;;;;;;0.52;0.50;;;;;;;27.10;30.54;101467.09;5011212;28;20136;-86
2022/07/05 08:58:06;;;;;;;1.20;0.40;;;;;;;27.01;30.82;101473.94;5010148;28;20037;-87
2022/07/05 09:00:44;;;;;;;1.67;0.40;;;;;;;26.44;30.84;101482.91;5029462;28;20041;-86
2022/07/05 09:03:15;;;;;;;3.38;0.88;;;;;;;25.92;32.02;101471.75;5008069;28;20546;-87
2022/07/05 09:05:49;;;;;;;1.00;0.60;;;;;;;26.52;31.35;101475.25;5027722;28;20765;-86
2022/07/05 09:08:19;;;;;;;1.25;0.50;;;;;;;27.46;29.85;101471.88;5008867;28;21072;-87
2022/07/05 09:10:46;;;;;;;1.38;0.40;;;;;;;28.09;29.21;101469.38;5013559;28;20045;-84
2022/07/05 09:13:13;;;;;;;2.67;0.57;;;;;;;28.60;28.72;101465.75;5028928;28;20041;-87
2022/07/05 09:15:40;;;;;;;0.68;0.52;;;;;;;28.56;28.65;101461.56;5049240;28;20065;-87
2022/07/05 09:18:07;;;;;;;1.35;0.90;;;;;;;28.94;27.67;101462.44;5011194;28;20098;-86
2022/07/05 09:20:36;;;;;;;1.80;0.70;;;;;;;28.36;28.16;101466.56;5013565;28;20041;-86
2022/07/05 09:23:03;;;;;;;1.27;0.35;;;;;;;26.94;29.53;101476.16;5026273;28;20063;-86
2022/07/05 09:28:26;;;;;;;3.40;0.80;;;;;;;26.91;30.04;101479.06;5015274;28;20052;-86
2022/07/05 09:30:53;;;;;;;1.63;0.43;;;;;;;27.91;28.91;101474.19;5028764;28;20200;-84
2022/07/05 09:33:20;;;;;;;4.60;0.82;;;;;;;27.91;27.29;101468.78;5045133;28;20414;-85
2022/07/05 09:35:57;;;;;;;3.55;0.50;;;;;;;27.24;27.89;101478.63;5024702;28;20083;-88
2022/07/05 09:38:25;;;;;;;0.32;0.30;;;;;;;27.15;28.15;101479.25;5012382;28;20041;-86
2022/07/05 09:40:55;;;;;;;1.45;0.50;;;;;;;28.05;26.43;101474.09;5030277;28;20053;-87
2022/07/05 09:43:28;;;;;;;0.52;0.50;;;;;;;28.84;26.40;101464.97;5012123;28;20040;-86
2022/07/05 09:46:02;;;;;;;4.22;0.50;;;;;;;29.91;25.33;101467.75;5014268;28;20054;-86
2022/07/05 09:48:32;;;;;;;2.45;0.65;;;;;;;30.65;24.39;101472.72;5017377;28;20093;-87
2022/07/05 09:51:25;;;;;;;0.77;0.52;;;;;;;29.05;26.10;101470.59;5038615;28;20111;-86
2022/07/05 09:54:02;;;;;;;0.50;0.40;;;;;;;28.64;26.68;101469.97;5038158;28;20044;-84
2022/07/05 09:56:29;;;;;;;1.10;0.77;;;;;;;28.43;27.42;101466.97;5034285;28;20112;-86
2022/07/05 09:58:57;;;;;;;0.93;0.40;;;;;;;28.18;27.40;101475.94;5037363;28;20041;-87
2022/07/05 10:01:26;;;;;;;1.08;0.38;;;;;;;27.54;28.11;101476.72;5037114;28;21021;-87
2022/07/05 10:04:04;;;;;;;1.45;0.43;;;;;;;26.31;29.64;101482.81;5052125;28;20060;-86
2022/07/05 10:06:37;;;;;;;2.15;0.50;;;;;;;25.32;31.35;101481.50;5034550;28;20059;-86
2022/07/05 10:09:06;;;;;;;2.78;0.57;;;;;;;25.74;30.61;101474.56;5033682;28;20152;-88
2022/07/05 10:11:36;;;;;;;2.97;0.60;;;;;;;26.98;29.14;101475.00;5036310;28;20515;-84
2022/07/05 10:14:16;;;;;;;0.47;0.33;;;;;;;28.28;26.83;101468.06;5025230;28;20068;-87
2022/07/05 10:16:55;;;;;;;1.70;0.40;;;;;;;28.30;26.62;101464.28;5035949;28;20055;-87
2022/07/05 10:19:35;;;;;;;1.75;0.80;;;;;;;29.28;24.85;101466.22;5049141;28;20475;-86
2022/07/05 10:22:04;;;;;;;1.80;0.70;;;;;;;29.39;25.18;101468.09;5021248;28;20041;-86
2022/07/05 10:24:37;;;;;;;1.20;0.70;;;;;;;30.75;24.14;101464.72;5030730;28;20045;-89
2022/07/05 10:27:14;;;;;;;1.98;0.95;;;;;;;32.15;22.67;101470.97;5036177;28;20059;-90
2022/07/05 10:29:44;;;;;;;1.35;0.63;;;;;;;32.30;22.65;101474.19;5036480;28;20134;-86
2022/07/05 10:32:15;;;;;;;0.52;0.40;;;;;;;33.05;21.62;101457.56;5036095;28;20040;-86
2022/07/05 10:34:51;;;;;;;0.90;0.50;;;;;;;33.42;21.09;101463.16;5050243;28;20044;-86
2022/07/05 10:37:28;;;;;;;1.35;0.35;;;;;;;34.03;20.24;101462.91;5032901;28;20064;-86
2022/07/05 10:40:10;;;;;;;1.27;0.30;;;;;;;31.80;21.42;101466.81;5016035;28;20049;-87
2022/07/05 10:42:57;;;;;;;2.65;0.60;;;;;;;30.54;23.09;101468.19;5048951;28;20194;-86
2022/07/05 10:45:40;;;;;;;2.90;0.60;;;;;;;29.98;23.91;101474.41;5032602;28;20140;-86
2022/07/05 10:48:30;;;;;;;1.35;0.30;;;;;;;29.18;24.93;101473.25;5032022;28;20130;-88
2022/07/05 10:51:10;;;;;;;1.20;0.40;;;;;;;29.32;24.86;101470.41;5043305;28;20120;-87
2022/07/05 10:53:38;;;;;;;0.20;0.20;;;;;;;30.99;22.63;101476.22;5048972;28;20044;-87
2022/07/05 10:56:09;;;;;;;1.88;0.32;;;;;;;32.14;21.90;101458.44;5048766;28;20048;-88
2022/07/05 10:58:55;;;;;;;3.42;0.30;;;;;;;33.73;20.19;101452.13;5031898;28;20045;-87
2022/07/05 11:01:30;;;;;;;1.65;0.40;;;;;;;34.90;19.51;101456.25;5032000;28;20457;-86
2022/07/05 11:04:05;;;;;;;2.08;0.47;;;;;;;35.73;18.05;101448.78;5048599;28;20052;-86
2022/07/05 11:06:43;;;;;;;3.67;0.38;;;;;;;34.10;19.03;101456.75;5040397;28;20037;-87
2022/07/05 11:09:13;;;;;;;1.52;0.20;;;;;;;32.82;20.29;101458.69;5030941;28;20053;-87
2022/07/05 11:12:06;;;;;;;0.20;0.20;;;;;;;33.03;19.95;101451.44;5046752;28;20036;-86
2022/07/05 11:14:41;;;;;;;4.25;0.68;;;;;;;31.40;21.18;101453.97;5046153;28;20095;-88
2022/07/05 11:17:11;;;;;;;1.30;0.50;;;;;;;28.91;24.20;101460.00;5019170;28;20044;-88
2022/07/05 11:20:09;;;;;;;2.40;0.30;;;;;;;27.33;26.05;101463.72;5039302;28;20052;-86
2022/07/05 11:22:42;;;;;;;0.90;0.30;;;;;;;29.19;23.85;101453.38;5017734;28;20053;-88
2022/07/05 11:25:14;;;;;;;3.60;0.30;;;;;;;31.54;21.69;101450.94;5027672;28;20033;-87
2022/07/05 11:28:02;;;;;;;0.93;0.40;;;;;;;33.46;20.25;101452.88;5027071;28;20045;-87
2022/07/05 11:30:30;;;;;;;5.38;0.30;;;;;;;32.72;20.49;101457.81;5015085;28;20055;-91
2022/07/05 11:33:00;;;;;;;0.63;0.52;;;;;;;31.45;21.96;101455.28;5052154;28;20045;-87
2022/07/05 11:35:34;;;;;;;1.55;0.30;;;;;;;32.74;21.31;101452.28;5032599;28;20053;-89
2022/07/05 11:38:08;;;;;;;1.30;0.30;;;;;;;34.29;19.66;101453.09;5052496;28;20109;-85
2022/07/05 11:40:38;;;;;;;0.30;0.15;;;;;;;33.86;19.79;101453.69;5023700;28;20041;-89
2022/07/05 11:43:11;;;;;;;2.17;0.30;;;;;;;32.66;20.96;101452.94;5021846;28;20121;-88
2022/07/05 11:45:39;;;;;;;2.22;0.20;;;;;;;32.71;20.50;101450.66;5018187;28;20341;-88
2022/07/05 11:48:16;;;;;;;2.55;0.40;;;;;;;33.05;19.60;101430.44;5028242;28;20047;-87
2022/07/05 11:50:45;;;;;;;2.38;0.30;;;;;;;34.03;19.53;101433.03;5042394;28;20047;-88
2022/07/05 11:53:16;;;;;;;1.52;0.35;;;;;;;35.38;18.22;101429.63;5006237;28;20060;-88
2022/07/05 11:55:43;;;;;;;0.98;0.30;;;;;;;36.46;17.04;101422.94;5024171;28;20060;-87
2022/07/05 11:58:12;;;;;;;4.20;0.68;;;;;;;35.71;17.83;101438.03;5023857;28;20056;-87
2022/07/05 12:00:45;;;;;;;2.80;0.28;;;;;;;32.58;19.89;101442.78;5020551;28;20080;-87
2022/07/05 12:03:16;;;;;;;2.22;0.60;;;;;;;32.26;20.79;101437.56;5013935;28;20156;-91
2022/07/05 12:05:45;;;;;;;2.40;0.20;;;;;;;33.89;19.20;101434.41;5025881;28;20041;-87
2022/07/05 12:08:12;;;;;;;0.93;0.28;;;;;;;34.84;18.30;101426.09;5043349;28;20055;-89